Time;durP1;ratioP1;P1;durP2;ratioP2;P2;SDS_P1;SDS_P2;PMS_P1;PMS_P2;Temp;Humidity;BMP_temperature;BMP_pressure;BME280_temperature;BME280_humidity;BME280_pressure;Samples;Min_cycle;Max_cycle;Signal;HPM_P1;HPM_P2
2022/03/04 00:01:11;;;;;;;14.75;6.85;;;;;;;1.76;100.00;101439.66;5235649;28;20028;-78
2022/03/04 00:03:42;;;;;;;13.95;6.43;;;;;;;1.89;100.00;101438.97;5231880;28;20438;-79
2022/03/04 00:06:12;;;;;;;12.85;6.07;;;;;;;1.79;100.00;101438.00;5232458;28;20028;-81
2022/03/04 00:08:43;;;;;;;13.57;6.63;;;;;;;1.66;100.00;101442.97;5232358;28;20029;-79
2022/03/04 00:11:13;;;;;;;16.42;6.68;;;;;;;1.76;100.00;101443.97;5235297;28;20021;-79
2022/03/04 00:13:43;;;;;;;12.25;6.07;;;;;;;1.74;100.00;101449.09;5236212;28;20031;-77
2022/03/04 00:16:14;;;;;;;14.85;7.03;;;;;;;1.67;100.00;101449.84;5234324;28;20021;-80
2022/03/04 00:18:44;;;;;;;13.27;5.90;;;;;;;1.59;100.00;101443.72;5233479;28;20078;-79
2022/03/04 00:21:14;;;;;;;16.45;7.47;;;;;;;1.52;100.00;101443.59;5231496;28;20264;-78
2022/03/04 00:23:45;;;;;;;17.30;6.65;;;;;;;1.57;100.00;101445.41;5234741;28;20028;-78
2022/03/04 00:26:15;;;;;;;13.73;5.93;;;;;;;1.62;100.00;101454.09;5235823;28;20111;-77
2022/03/04 00:28:45;;;;;;;14.35;6.15;;;;;;;1.62;100.00;101454.09;5230740;28;20029;-78
2022/03/04 00:31:15;;;;;;;15.68;6.28;;;;;;;1.66;100.00;101450.69;5233574;28;20032;-78
2022/03/04 00:33:46;;;;;;;13.32;5.93;;;;;;;1.52;100.00;101453.91;5231007;28;20021;-80
2022/03/04 00:36:16;;;;;;;13.65;6.22;;;;;;;1.53;100.00;101446.22;5231757;28;20082;-79
2022/03/04 00:38:46;;;;;;;12.07;5.90;;;;;;;1.51;100.00;101450.47;5230814;28;20356;-79
2022/03/04 00:41:18;;;;;;;12.13;5.63;;;;;;;1.58;100.00;101457.44;5233110;28;20043;-78
2022/03/04 00:43:50;;;;;;;11.18;5.20;;;;;;;1.74;100.00;101458.53;5230324;28;20518;-79
2022/03/04 00:46:20;;;;;;;16.00;5.78;;;;;;;1.78;100.00;101474.03;5237805;28;20077;-80
2022/03/04 00:48:50;;;;;;;12.50;5.85;;;;;;;1.71;100.00;101459.34;5232515;28;20032;-78
2022/03/04 00:51:21;;;;;;;10.93;5.50;;;;;;;1.83;100.00;101455.22;5230804;28;20033;-80
2022/03/04 00:53:51;;;;;;;12.82;5.72;;;;;;;1.72;100.00;101455.94;5231370;28;20020;-79
2022/03/04 00:56:22;;;;;;;11.32;5.55;;;;;;;1.88;100.00;101463.03;5235597;28;20039;-79
2022/03/04 00:58:52;;;;;;;12.13;5.88;;;;;;;1.85;100.00;101462.97;5231682;28;20107;-80
2022/03/04 01:01:22;;;;;;;14.60;6.03;;;;;;;1.80;100.00;101457.75;5234995;28;20241;-77
2022/03/04 01:03:53;;;;;;;15.43;5.53;;;;;;;1.82;100.00;101457.78;5230432;28;20103;-79
2022/03/04 01:06:23;;;;;;;10.35;5.13;;;;;;;1.85;100.00;101455.25;5230964;28;20040;-78
2022/03/04 01:08:53;;;;;;;12.43;5.30;;;;;;;1.81;100.00;101456.91;5229656;28;20175;-80
2022/03/04 01:11:24;;;;;;;12.90;5.85;;;;;;;1.74;100.00;101459.38;5230757;28;20505;-79
2022/03/04 01:13:54;;;;;;;11.40;5.65;;;;;;;1.66;100.00;101461.00;5224988;28;20048;-79
2022/03/04 01:16:25;;;;;;;9.18;4.28;;;;;;;1.66;100.00;101453.28;5224046;28;20040;-78
2022/03/04 01:18:55;;;;;;;12.85;5.50;;;;;;;1.62;100.00;101451.50;5233462;28;20418;-78
2022/03/04 01:21:25;;;;;;;11.15;4.90;;;;;;;1.73;100.00;101442.19;5230710;28;20032;-78
2022/03/04 01:23:56;;;;;;;8.77;5.18;;;;;;;1.67;100.00;101449.84;5239206;28;20023;-78
2022/03/04 01:26:26;;;;;;;10.68;5.30;;;;;;;1.70;100.00;101443.84;5232255;28;20036;-80
2022/03/04 01:28:56;;;;;;;10.32;5.15;;;;;;;1.82;100.00;101439.75;5237127;28;20377;-79
2022/03/04 01:31:27;;;;;;;12.00;5.00;;;;;;;1.75;100.00;101435.34;5237037;28;20051;-79
2022/03/04 01:33:57;;;;;;;10.35;5.75;;;;;;;1.88;100.00;101439.81;5231320;28;20035;-79
2022/03/04 01:36:32;;;;;;;11.52;5.18;;;;;;;1.81;100.00;101449.19;5234014;28;20090;-78
2022/03/04 01:39:03;;;;;;;11.95;5.32;;;;;;;1.88;100.00;101448.44;5234312;28;20029;-79
2022/03/04 01:41:33;;;;;;;13.25;5.32;;;;;;;1.68;100.00;101446.44;5234420;28;20040;-78
2022/03/04 01:44:03;;;;;;;10.60;5.32;;;;;;;1.67;100.00;101442.13;5236662;28;20028;-77
2022/03/04 01:46:34;;;;;;;12.05;6.18;;;;;;;1.58;100.00;101438.56;5234851;28;20035;-80
2022/03/04 01:49:04;;;;;;;14.60;6.43;;;;;;;1.55;100.00;101439.38;5234072;28;20351;-80
2022/03/04 01:51:34;;;;;;;12.93;5.75;;;;;;;1.66;100.00;101445.53;5233835;28;20028;-80
2022/03/04 01:54:05;;;;;;;14.95;6.60;;;;;;;1.50;100.00;101441.03;5236452;28;20024;-78
2022/03/04 01:56:35;;;;;;;16.88;7.53;;;;;;;1.60;100.00;101440.28;5234056;28;20389;-79
2022/03/04 01:59:06;;;;;;;16.83;7.20;;;;;;;1.53;100.00;101445.31;5230344;28;20100;-78
2022/03/04 02:01:36;;;;;;;12.55;6.82;;;;;;;1.55;100.00;101438.53;5232069;28;20025;-79
2022/03/04 02:04:06;;;;;;;16.48;7.78;;;;;;;1.59;100.00;101445.44;5234472;28;20387;-80
2022/03/04 02:06:37;;;;;;;12.77;6.60;;;;;;;1.59;100.00;101437.72;5237797;28;20031;-80
2022/03/04 02:09:07;;;;;;;14.27;6.80;;;;;;;1.70;100.00;101434.44;5233323;28;20071;-79
2022/03/04 02:11:43;;;;;;;11.52;6.28;;;;;;;1.80;100.00;101436.31;5234007;28;20049;-80
2022/03/04 02:14:13;;;;;;;13.20;6.05;;;;;;;1.82;100.00;101430.31;5233269;28;20020;-79
2022/03/04 02:16:46;;;;;;;10.55;5.85;;;;;;;1.81;100.00;101430.31;5232866;28;20027;-79
2022/03/04 02:19:18;;;;;;;12.38;5.97;;;;;;;1.78;100.00;101443.13;5233029;28;20029;-79
2022/03/04 02:21:53;;;;;;;15.80;6.43;;;;;;;1.86;100.00;101433.78;5231225;28;20037;-79
2022/03/04 02:24:25;;;;;;;12.55;6.43;;;;;;;1.95;100.00;101421.00;5235189;28;20474;-78
2022/03/04 02:26:57;;;;;;;14.30;6.38;;;;;;;1.88;100.00;101435.56;5227965;28;20063;-79
2022/03/04 02:29:30;;;;;;;14.05;6.32;;;;;;;1.76;100.00;101439.66;5231954;28;20029;-78
2022/03/04 02:32:01;;;;;;;12.90;5.82;;;;;;;1.85;100.00;101427.75;5232470;28;20023;-79
2022/03/04 02:34:32;;;;;;;13.07;6.75;;;;;;;1.70;100.00;101421.56;5230322;28;20020;-78
2022/03/04 02:37:02;;;;;;;13.20;6.55;;;;;;;1.72;100.00;101429.31;5236528;28;20027;-78
2022/03/04 02:39:33;;;;;;;13.43;6.57;;;;;;;1.71;100.00;101420.69;5231028;28;20075;-80
2022/03/04 02:42:03;;;;;;;14.93;7.05;;;;;;;1.78;100.00;101427.66;5230982;28;20446;-79
2022/03/04 02:44:34;;;;;;;17.77;7.05;;;;;;;1.79;100.00;101430.25;5232767;28;20081;-80
2022/03/04 02:47:04;;;;;;;13.63;6.50;;;;;;;1.74;100.00;101433.63;5232550;28;20040;-79
2022/03/04 02:49:34;;;;;;;10.82;5.85;;;;;;;1.86;100.00;101436.38;5236776;28;20088;-78
2022/03/04 02:52:05;;;;;;;12.73;5.88;;;;;;;1.73;100.00;101433.63;5232043;28;20021;-78
2022/03/04 02:54:35;;;;;;;13.48;6.68;;;;;;;1.74;100.00;101432.78;5234555;28;20409;-79
2022/03/04 02:57:05;;;;;;;13.70;6.43;;;;;;;1.70;100.00;101436.13;5227088;28;20028;-78
2022/03/04 02:59:36;;;;;;;13.52;6.45;;;;;;;1.84;100.00;101435.50;5237905;28;20032;-78
2022/03/04 03:02:06;;;;;;;13.30;6.28;;;;;;;1.77;100.00;101441.38;5231112;28;20024;-80
2022/03/04 03:04:36;;;;;;;16.50;6.88;;;;;;;1.75;100.00;101432.78;5230957;28;20032;-79
2022/03/04 03:07:07;;;;;;;15.32;6.60;;;;;;;1.78;100.00;101437.97;5228488;28;20607;-78
2022/03/04 03:09:37;;;;;;;11.63;5.30;;;;;;;1.80;100.00;101439.72;5230036;28;20028;-78
2022/03/04 03:12:08;;;;;;;13.38;6.70;;;;;;;1.96;100.00;101430.50;5231739;28;20023;-77
2022/03/04 03:14:38;;;;;;;17.92;5.78;;;;;;;1.69;100.00;101437.84;5232062;28;20078;-80
2022/03/04 03:17:08;;;;;;;12.27;6.38;;;;;;;1.80;100.00;101437.16;5231718;28;20078;-78
2022/03/04 03:19:39;;;;;;;11.02;6.05;;;;;;;1.87;100.00;101427.78;5229848;28;20448;-79
2022/03/04 03:22:09;;;;;;;12.10;6.10;;;;;;;1.96;100.00;101422.78;5231933;28;20185;-78
2022/03/04 03:24:40;;;;;;;11.57;5.90;;;;;;;1.91;100.00;101427.84;5233772;28;20031;-79
2022/03/04 03:27:11;;;;;;;10.98;6.05;;;;;;;1.89;100.00;101432.13;5228568;28;20072;-79
2022/03/04 03:29:41;;;;;;;13.18;6.30;;;;;;;1.99;100.00;101438.25;5228983;28;20032;-80
2022/03/04 03:32:12;;;;;;;16.30;6.80;;;;;;;1.80;100.00;101438.88;5229808;28;20028;-79
2022/03/04 03:34:42;;;;;;;13.95;6.70;;;;;;;1.80;100.00;101431.16;5232211;28;20031;-78
2022/03/04 03:37:12;;;;;;;15.88;7.20;;;;;;;1.73;100.00;101433.63;5233547;28;20020;-79
2022/03/04 03:39:43;;;;;;;13.13;6.75;;;;;;;1.70;100.00;101424.13;5225387;28;20025;-79
2022/03/04 03:42:13;;;;;;;14.63;6.45;;;;;;;1.66;100.00;101431.78;5236064;28;20027;-79
2022/03/04 03:44:43;;;;;;;14.23;6.25;;;;;;;1.69;100.00;101417.25;5233890;28;20034;-79
2022/03/04 03:47:14;;;;;;;13.48;6.80;;;;;;;1.64;100.00;101415.44;5229582;28;20078;-79
2022/03/04 03:49:44;;;;;;;11.40;6.28;;;;;;;1.52;100.00;101421.31;5228344;28;20611;-78
2022/03/04 03:52:14;;;;;;;15.35;6.55;;;;;;;1.57;100.00;101426.53;5232117;28;20032;-80
2022/03/04 03:54:45;;;;;;;13.57;6.22;;;;;;;1.50;100.00;101427.25;5232844;28;20567;-80
2022/03/04 03:57:15;;;;;;;14.10;7.30;;;;;;;1.55;100.00;101425.66;5229016;28;20064;-79
2022/03/04 03:59:45;;;;;;;15.90;6.88;;;;;;;1.60;100.00;101429.13;5229221;28;20033;-79
2022/03/04 04:02:16;;;;;;;15.07;6.15;;;;;;;1.55;100.00;101429.06;5229710;28;20048;-79
2022/03/04 04:04:46;;;;;;;10.57;5.90;;;;;;;1.71;100.00;101428.44;5232346;28;20414;-79
2022/03/04 04:07:16;;;;;;;14.85;6.63;;;;;;;1.66;100.00;101418.91;5233909;28;20036;-78
2022/03/04 04:09:46;;;;;;;12.80;6.13;;;;;;;1.57;100.00;101431.69;5226430;28;20063;-78
2022/03/04 04:12:17;;;;;;;14.30;7.13;;;;;;;1.54;100.00;101421.34;5230635;28;20112;-79
2022/03/04 04:14:47;;;;;;;15.55;6.68;;;;;;;1.50;100.00;101425.56;5231100;28;20047;-78
2022/03/04 04:17:18;;;;;;;14.73;6.28;;;;;;;1.51;100.00;101422.16;5226143;28;20035;-79
2022/03/04 04:19:48;;;;;;;14.32;6.28;;;;;;;1.42;100.00;101426.31;5229675;28;20269;-80
2022/03/04 04:22:20;;;;;;;10.52;5.72;;;;;;;1.38;100.00;101421.97;5234850;28;20039;-79
2022/03/04 04:24:50;;;;;;;12.68;6.22;;;;;;;1.17;100.00;101425.06;5234829;28;20032;-80
2022/03/04 04:27:20;;;;;;;13.18;6.28;;;;;;;1.15;100.00;101426.75;5229535;28;20509;-79
2022/03/04 04:29:51;;;;;;;15.60;6.75;;;;;;;1.06;100.00;101429.16;5231319;28;20044;-79
2022/03/04 04:32:21;;;;;;;11.88;6.25;;;;;;;1.07;100.00;101430.91;5228924;28;20028;-79
2022/03/04 04:34:51;;;;;;;12.95;6.72;;;;;;;0.86;100.00;101438.25;5233889;28;20377;-80
2022/03/04 04:37:21;;;;;;;13.80;6.53;;;;;;;0.96;100.00;101429.00;5235750;28;20044;-79
2022/03/04 04:39:52;;;;;;;13.18;6.80;;;;;;;0.95;100.00;101430.72;5231074;28;20025;-80
2022/03/04 04:42:22;;;;;;;12.02;6.60;;;;;;;0.91;100.00;101440.94;5232412;28;20555;-79
2022/03/04 04:44:52;;;;;;;12.68;7.00;;;;;;;1.06;100.00;101446.31;5230723;28;20079;-80
2022/03/04 04:47:23;;;;;;;13.50;6.50;;;;;;;0.93;100.00;101447.81;5228189;28;20115;-78
2022/03/04 04:49:53;;;;;;;12.82;6.85;;;;;;;0.95;100.00;101453.00;5230386;28;20021;-79
2022/03/04 04:52:23;;;;;;;11.90;6.60;;;;;;;0.78;100.00;101463.00;5233025;28;20056;-79
2022/03/04 04:54:54;;;;;;;13.70;6.88;;;;;;;0.91;100.00;101456.38;5240248;28;20029;-79
2022/03/04 04:57:24;;;;;;;15.57;6.78;;;;;;;0.79;100.00;101456.13;5237205;28;20039;-79
2022/03/04 04:59:55;;;;;;;14.32;6.88;;;;;;;0.78;100.00;101452.72;5233958;28;20052;-77
2022/03/04 05:02:25;;;;;;;16.15;6.72;;;;;;;0.77;100.00;101448.41;5237144;28;20028;-79
2022/03/04 05:04:55;;;;;;;14.15;7.35;;;;;;;0.77;100.00;101450.09;5237025;28;20032;-80
2022/03/04 05:07:25;;;;;;;14.43;7.22;;;;;;;0.74;100.00;101453.47;5240148;28;20032;-80
2022/03/04 05:09:56;;;;;;;13.20;6.25;;;;;;;0.70;100.00;101451.69;5234114;28;20017;-80
2022/03/04 05:12:26;;;;;;;18.10;7.43;;;;;;;0.75;100.00;101464.66;5238077;28;20025;-80
2022/03/04 05:14:56;;;;;;;16.02;7.47;;;;;;;0.81;100.00;101455.34;5238381;28;20624;-79
2022/03/04 05:17:26;;;;;;;12.60;7.32;;;;;;;0.82;100.00;101461.34;5232828;28;20479;-79
2022/03/04 05:19:57;;;;;;;13.30;6.50;;;;;;;0.99;100.00;101450.50;5223969;28;20036;-79
2022/03/04 05:22:27;;;;;;;11.48;6.60;;;;;;;1.03;100.00;101447.13;5237956;28;20039;-81
2022/03/04 05:24:57;;;;;;;16.35;6.95;;;;;;;1.06;100.00;101436.03;5242962;28;20617;-81
2022/03/04 05:27:28;;;;;;;15.35;7.28;;;;;;;1.01;100.00;101446.25;5264849;22;20040;-77
2022/03/04 05:29:58;;;;;;;14.27;6.85;;;;;;;0.95;100.00;101447.84;5252648;28;20029;-78
2022/03/04 05:32:28;;;;;;;14.63;7.10;;;;;;;0.76;100.00;101446.66;5258403;28;20032;-77
2022/03/04 05:34:58;;;;;;;18.23;7.45;;;;;;;0.79;100.00;101449.31;5260108;28;20050;-76
2022/03/04 05:37:29;;;;;;;18.98;8.85;;;;;;;0.96;100.00;101459.88;5262563;28;20427;-74
2022/03/04 05:39:59;;;;;;;15.98;7.55;;;;;;;1.00;100.00;101461.66;5268237;28;20542;-77
2022/03/04 05:42:29;;;;;;;12.93;6.57;;;;;;;1.01;100.00;101476.25;5269607;28;20028;-77
2022/03/04 05:45:00;;;;;;;12.73;6.82;;;;;;;1.19;100.00;101456.84;5268295;28;20028;-77
2022/03/04 05:47:31;;;;;;;12.82;6.35;;;;;;;1.10;100.00;101464.41;5266278;28;20062;-77
2022/03/04 05:50:02;;;;;;;12.23;6.82;;;;;;;1.12;100.00;101467.88;5269838;28;20020;-75
2022/03/04 05:52:33;;;;;;;15.05;6.75;;;;;;;1.25;100.00;101464.66;5273984;28;20153;-78
2022/03/04 05:55:03;;;;;;;15.20;7.10;;;;;;;1.19;100.00;101464.56;5278590;28;20060;-77
2022/03/04 05:57:34;;;;;;;12.55;7.20;;;;;;;1.04;100.00;101463.47;5277760;28;20170;-76
2022/03/04 06:00:04;;;;;;;13.75;6.32;;;;;;;1.16;100.00;101469.66;5277195;28;20028;-77
2022/03/04 06:02:35;;;;;;;14.35;6.70;;;;;;;1.00;100.00;101462.53;5277462;28;20028;-77
2022/03/04 06:05:06;;;;;;;17.42;7.40;;;;;;;1.23;100.00;101460.34;5272762;28;20062;-77
2022/03/04 06:07:36;;;;;;;14.98;7.47;;;;;;;1.19;100.00;101471.41;5276280;28;20077;-76
2022/03/04 06:10:07;;;;;;;13.27;6.82;;;;;;;1.21;100.00;101470.59;5277251;28;20096;-76
2022/03/04 06:12:37;;;;;;;15.55;6.95;;;;;;;1.01;100.00;101479.69;5277080;28;20045;-78
2022/03/04 06:15:08;;;;;;;14.75;6.75;;;;;;;1.16;100.00;101479.06;5277267;28;20031;-78
2022/03/04 06:17:44;;;;;;;16.15;7.18;;;;;;;1.11;100.00;101491.91;5275450;28;20020;-77
2022/03/04 06:20:18;;;;;;;16.70;7.22;;;;;;;1.20;100.00;101488.59;5275742;28;20031;-78
2022/03/04 06:22:49;;;;;;;15.63;7.13;;;;;;;1.32;100.00;101481.94;5270263;28;20021;-77
2022/03/04 06:25:20;;;;;;;15.70;7.68;;;;;;;1.47;100.00;101481.31;5272208;28;20036;-77
2022/03/04 06:27:55;;;;;;;16.10;7.70;;;;;;;1.59;100.00;101477.19;5273845;28;20026;-77
2022/03/04 06:30:28;;;;;;;15.45;8.43;;;;;;;1.65;100.00;101485.03;5274230;28;20036;-76
2022/03/04 06:35:48;;;;;;;17.38;8.27;;;;;;;1.58;100.00;101488.34;5272249;28;20047;-77
2022/03/04 06:38:19;;;;;;;14.27;7.53;;;;;;;1.47;100.00;101492.47;5270698;28;20024;-78
2022/03/04 06:40:50;;;;;;;14.40;7.20;;;;;;;1.46;100.00;101495.03;5274686;28;20038;-77
2022/03/04 06:43:21;;;;;;;16.73;7.95;;;;;;;1.25;100.00;101495.53;5274979;28;21132;-75
2022/03/04 06:45:51;;;;;;;14.15;7.40;;;;;;;1.39;100.00;101498.34;5275844;28;20122;-76
2022/03/04 06:48:22;;;;;;;13.63;7.38;;;;;;;1.53;100.00;101497.72;5273866;28;20023;-78
2022/03/04 06:50:53;;;;;;;19.80;7.68;;;;;;;1.61;100.00;101511.56;5274594;28;20030;-78
2022/03/04 06:53:25;;;;;;;13.95;7.50;;;;;;;1.56;100.00;101508.06;5273580;28;20249;-76
2022/03/04 06:55:55;;;;;;;14.30;7.28;;;;;;;1.73;100.00;101506.59;5272971;28;20646;-77
2022/03/04 06:58:26;;;;;;;12.80;7.35;;;;;;;1.82;100.00;101514.47;5273862;28;20043;-76
2022/03/04 07:00:56;;;;;;;17.88;7.03;;;;;;;1.68;100.00;101518.56;5274870;28;20016;-77
2022/03/04 07:03:27;;;;;;;13.20;6.88;;;;;;;1.86;100.00;101529.13;5274926;28;20020;-78
2022/03/04 07:05:57;;;;;;;18.10;6.82;;;;;;;1.84;100.00;101525.69;5274552;28;20030;-78
2022/03/04 07:08:27;;;;;;;17.42;7.28;;;;;;;1.96;100.00;101526.72;5274169;28;20043;-77
2022/03/04 07:10:58;;;;;;;17.00;7.63;;;;;;;1.85;100.00;101522.25;5274966;28;20051;-78
2022/03/04 07:13:28;;;;;;;13.63;7.05;;;;;;;1.85;100.00;101532.56;5274438;28;20696;-76
2022/03/04 07:15:58;;;;;;;16.80;7.28;;;;;;;2.02;100.00;101531.09;5272941;28;20049;-78
2022/03/04 07:18:29;;;;;;;14.90;7.28;;;;;;;2.04;100.00;101529.41;5273539;28;20067;-78
2022/03/04 07:21:00;;;;;;;14.95;6.88;;;;;;;2.01;100.00;101527.63;5272696;28;20092;-75
2022/03/04 07:23:31;;;;;;;14.82;6.90;;;;;;;2.03;100.00;101527.66;5269468;28;20107;-77
2022/03/04 07:26:01;;;;;;;14.32;6.85;;;;;;;2.08;100.00;101528.59;5269195;28;20019;-76
2022/03/04 07:28:31;;;;;;;14.45;7.55;;;;;;;2.18;100.00;101527.88;5275000;28;20052;-76
2022/03/04 07:31:02;;;;;;;18.05;7.45;;;;;;;2.28;100.00;101529.72;5273741;28;20083;-76
2022/03/04 07:33:33;;;;;;;13.35;7.50;;;;;;;2.26;100.00;101537.44;5274010;28;20111;-76
2022/03/04 07:36:04;;;;;;;14.90;6.97;;;;;;;2.34;100.00;101528.06;5273547;28;20028;-76
2022/03/04 07:38:35;;;;;;;13.00;7.25;;;;;;;2.20;100.00;101532.19;5271056;28;20039;-75
2022/03/04 07:41:05;;;;;;;11.90;6.63;;;;;;;2.20;99.25;101531.34;5273109;28;20024;-76
2022/03/04 07:43:35;;;;;;;13.88;7.13;;;;;;;2.41;99.98;101536.75;5273886;28;20309;-76
2022/03/04 07:46:05;;;;;;;14.52;8.00;;;;;;;2.34;100.00;101540.97;5274003;28;20028;-77
2022/03/04 07:48:36;;;;;;;13.30;7.45;;;;;;;2.52;99.97;101548.09;5269111;28;20463;-77
2022/03/04 07:51:06;;;;;;;16.63;8.10;;;;;;;2.34;99.32;101540.13;5273236;28;20079;-76
2022/03/04 07:53:36;;;;;;;16.88;8.75;;;;;;;2.52;98.71;101542.94;5269601;28;20262;-78
2022/03/04 07:56:06;;;;;;;16.38;8.32;;;;;;;2.53;98.24;101536.91;5273022;28;20032;-76
2022/03/04 07:58:37;;;;;;;18.13;8.68;;;;;;;2.58;98.26;101540.41;5273867;28;20038;-77
2022/03/04 08:01:08;;;;;;;18.60;8.65;;;;;;;2.57;99.05;101543.84;5273088;28;20020;-76
2022/03/04 08:03:39;;;;;;;17.52;8.13;;;;;;;2.52;97.65;101548.09;5274998;28;20024;-76
2022/03/04 08:06:10;;;;;;;21.77;8.60;;;;;;;2.55;97.50;101542.97;5270708;28;20031;-76
2022/03/04 08:08:40;;;;;;;16.80;7.97;;;;;;;2.64;97.70;101535.31;5272852;28;20028;-77
2022/03/04 08:11:13;;;;;;;15.48;8.25;;;;;;;2.47;97.99;101537.72;5274491;28;20020;-77
2022/03/04 08:13:44;;;;;;;19.88;8.35;;;;;;;2.78;99.43;101534.63;5273879;28;20023;-78
2022/03/04 08:16:14;;;;;;;18.98;8.82;;;;;;;2.95;98.17;101537.38;5273053;28;20039;-78
2022/03/04 08:18:44;;;;;;;18.38;8.55;;;;;;;2.92;95.63;101538.25;5273364;28;20427;-76
2022/03/04 08:21:14;;;;;;;17.73;8.63;;;;;;;2.96;95.28;101542.56;5273107;28;20122;-77
2022/03/04 08:23:45;;;;;;;15.18;8.50;;;;;;;2.79;99.18;101545.81;5273070;28;20061;-77
2022/03/04 08:26:15;;;;;;;20.75;8.50;;;;;;;2.75;97.12;101554.38;5272299;28;20227;-78
2022/03/04 08:28:46;;;;;;;17.33;8.57;;;;;;;2.95;96.77;101547.72;5272662;28;20427;-76
2022/03/04 08:31:16;;;;;;;17.38;8.05;;;;;;;2.94;95.38;101545.97;5272621;28;20056;-75
2022/03/04 08:33:47;;;;;;;18.17;8.90;;;;;;;2.81;97.34;101555.31;5271763;28;20034;-76
2022/03/04 08:36:17;;;;;;;18.00;8.05;;;;;;;2.94;96.92;101551.16;5272050;28;20020;-77
2022/03/04 08:38:48;;;;;;;17.25;8.57;;;;;;;3.07;96.35;101560.75;5272444;28;20270;-77
2022/03/04 08:41:18;;;;;;;18.05;8.13;;;;;;;2.96;96.58;101560.66;5269028;28;20377;-76
2022/03/04 08:43:51;;;;;;;16.42;7.60;;;;;;;3.10;94.84;101563.38;5273206;28;20026;-77
2022/03/04 08:46:21;;;;;;;19.48;8.20;;;;;;;2.75;98.40;101569.84;5271895;28;20525;-76
2022/03/04 08:48:52;;;;;;;21.35;8.15;;;;;;;2.81;98.26;101565.63;5271113;28;20083;-77
2022/03/04 08:51:25;;;;;;;16.35;8.02;;;;;;;2.87;99.00;101570.00;5272398;28;20016;-75
2022/03/04 08:53:55;;;;;;;16.60;8.20;;;;;;;2.76;99.73;101566.44;5273438;28;20039;-78
2022/03/04 08:56:26;;;;;;;19.13;8.10;;;;;;;2.64;99.14;101561.13;5272979;28;20028;-75
2022/03/04 08:58:56;;;;;;;20.85;9.45;;;;;;;2.64;100.00;101564.56;5273254;28;20058;-77
2022/03/04 09:01:26;;;;;;;15.70;7.60;;;;;;;2.57;99.71;101569.63;5273026;28;20035;-76
2022/03/04 09:03:57;;;;;;;19.60;9.70;;;;;;;2.44;100.00;101562.59;5273311;28;20294;-77
2022/03/04 09:06:27;;;;;;;20.92;9.43;;;;;;;2.54;100.00;101554.97;5273382;28;20452;-75
2022/03/04 09:08:57;;;;;;;16.40;8.18;;;;;;;2.61;100.00;101563.66;5272955;28;20024;-75
2022/03/04 09:11:27;;;;;;;17.23;8.13;;;;;;;2.47;100.00;101571.25;5273705;28;20035;-77
2022/03/04 09:13:58;;;;;;;20.98;8.27;;;;;;;2.77;98.96;101569.03;5272309;28;20023;-76
2022/03/04 09:16:29;;;;;;;17.83;7.63;;;;;;;2.63;99.57;101559.38;5272903;28;20023;-76
2022/03/04 09:19:00;;;;;;;17.45;7.57;;;;;;;2.90;98.27;101564.88;5272932;28;20053;-75
2022/03/04 09:21:30;;;;;;;15.68;7.60;;;;;;;2.64;97.67;101572.31;5273326;28;20032;-76
2022/03/04 09:24:00;;;;;;;15.10;7.10;;;;;;;2.72;99.47;101575.00;5269076;28;20492;-75
2022/03/04 09:26:31;;;;;;;13.50;6.45;;;;;;;2.62;98.02;101575.72;5272205;28;20090;-77
2022/03/04 09:29:01;;;;;;;16.38;7.55;;;;;;;2.64;97.10;101581.75;5268136;28;20327;-77
2022/03/04 09:31:32;;;;;;;15.35;7.30;;;;;;;2.59;100.00;101588.56;5272866;28;20012;-78
2022/03/04 09:34:02;;;;;;;14.13;7.38;;;;;;;2.79;99.83;101577.66;5272650;28;20026;-75
2022/03/04 09:36:32;;;;;;;12.85;6.65;;;;;;;2.82;97.75;101576.84;5268667;28;20020;-76
2022/03/04 09:39:03;;;;;;;14.52;6.97;;;;;;;2.68;99.68;101584.41;5273528;28;20034;-75
2022/03/04 09:41:34;;;;;;;15.50;6.85;;;;;;;2.49;99.20;101592.75;5277156;28;20062;-76
2022/03/04 09:44:05;;;;;;;16.60;6.85;;;;;;;2.67;99.31;101597.31;5273333;28;20088;-77
2022/03/04 09:46:36;;;;;;;17.38;7.30;;;;;;;2.68;98.96;101599.03;5276454;28;20050;-76
2022/03/04 09:49:08;;;;;;;15.63;6.95;;;;;;;2.64;99.75;101603.28;5276709;28;20047;-78
2022/03/04 09:51:38;;;;;;;16.67;6.68;;;;;;;2.64;100.00;101602.41;5276865;28;20035;-77
2022/03/04 09:54:10;;;;;;;15.02;7.13;;;;;;;2.79;99.72;101600.88;5271622;28;20107;-77
2022/03/04 09:56:40;;;;;;;16.52;7.32;;;;;;;2.97;97.02;101603.69;5276503;28;20047;-75
2022/03/04 09:59:11;;;;;;;16.55;6.70;;;;;;;2.80;98.20;101609.47;5277090;28;20126;-78
2022/03/04 10:01:41;;;;;;;15.50;7.53;;;;;;;3.04;96.63;101604.63;5276571;28;20575;-77
2022/03/04 10:04:11;;;;;;;16.73;7.82;;;;;;;3.00;98.22;101608.88;5277240;28;20034;-76
2022/03/04 10:06:49;;;;;;;14.27;7.03;;;;;;;3.26;94.95;101601.41;5273846;28;20036;-76
2022/03/04 10:09:42;;;;;;;18.33;6.95;;;;;;;3.35;93.43;101610.13;5275120;28;20024;-75
2022/03/04 10:12:14;;;;;;;17.10;7.22;;;;;;;2.72;95.00;101608.53;5273284;28;20028;-77
2022/03/04 10:15:07;;;;;;;17.08;7.40;;;;;;;2.69;96.32;101611.09;5276644;28;20030;-76
2022/03/04 10:17:37;;;;;;;16.48;7.70;;;;;;;2.72;97.32;101604.22;5272134;28;20024;-76
2022/03/04 10:20:12;;;;;;;16.42;7.60;;;;;;;2.88;96.95;101613.03;5276466;28;20049;-75
2022/03/04 10:22:45;;;;;;;17.23;8.00;;;;;;;2.71;96.51;101615.41;5272504;28;20035;-76
2022/03/04 10:25:22;;;;;;;17.55;8.13;;;;;;;2.66;97.74;101605.88;5277061;28;20540;-77
2022/03/04 10:27:52;;;;;;;19.00;8.48;;;;;;;2.76;97.00;101615.47;5275969;28;20544;-76
2022/03/04 10:30:31;;;;;;;20.23;8.00;;;;;;;2.29;99.49;101619.13;5276088;28;20024;-77
2022/03/04 10:33:11;;;;;;;19.73;8.38;;;;;;;2.22;100.00;101617.31;5271530;28;20393;-76
2022/03/04 10:35:42;;;;;;;18.67;8.40;;;;;;;2.47;100.00;101620.25;5270237;28;20073;-76
2022/03/04 10:38:23;;;;;;;22.38;9.02;;;;;;;2.20;100.00;101625.00;5276188;28;20024;-75
2022/03/04 10:40:54;;;;;;;19.55;8.55;;;;;;;2.15;100.00;101630.97;5273048;28;20020;-75
2022/03/04 10:43:32;;;;;;;17.85;8.15;;;;;;;2.07;100.00;101619.66;5275245;28;20049;-76
2022/03/04 10:46:05;;;;;;;19.35;8.05;;;;;;;2.31;100.00;101626.03;5271942;28;20224;-77
2022/03/04 10:48:35;;;;;;;16.83;7.43;;;;;;;2.45;100.00;101614.22;5275460;28;20027;-75
2022/03/04 10:51:05;;;;;;;18.27;7.93;;;;;;;2.36;100.00;101626.13;5275030;28;20039;-75
2022/03/04 10:53:36;;;;;;;19.02;9.15;;;;;;;2.15;100.00;101615.50;5275716;28;20020;-75
2022/03/04 10:56:07;;;;;;;17.45;7.50;;;;;;;1.98;100.00;101625.53;5275205;28;20108;-76
2022/03/04 10:58:40;;;;;;;18.98;7.20;;;;;;;1.80;100.00;101632.13;5274695;28;20059;-76
2022/03/04 11:01:17;;;;;;;13.15;6.47;;;;;;;1.72;100.00;101638.84;5274987;28;20028;-75
2022/03/04 11:03:47;;;;;;;15.45;6.25;;;;;;;1.89;100.00;101640.88;5274641;28;20024;-75
2022/03/04 11:06:17;;;;;;;13.55;6.18;;;;;;;1.86;100.00;101637.38;5274316;28;20129;-77
2022/03/04 11:08:47;;;;;;;13.55;5.95;;;;;;;1.84;100.00;101633.91;5275295;28;20036;-76
2022/03/04 11:11:19;;;;;;;11.45;5.72;;;;;;;2.04;100.00;101624.75;5273419;28;20050;-75
2022/03/04 11:13:49;;;;;;;11.43;4.70;;;;;;;2.03;98.66;101626.47;5273399;28;20481;-76
2022/03/04 11:16:19;;;;;;;9.45;4.68;;;;;;;2.21;96.38;101626.78;5269056;28;20040;-75
2022/03/04 11:18:51;;;;;;;9.70;4.50;;;;;;;2.29;96.06;101625.16;5273391;28;20020;-77
2022/03/04 11:21:21;;;;;;;10.18;4.32;;;;;;;2.23;94.16;101629.34;5274208;28;20028;-76
2022/03/04 11:23:53;;;;;;;8.38;3.97;;;;;;;2.39;93.41;101633.88;5273802;28;20481;-75
2022/03/04 11:26:27;;;;;;;9.82;4.47;;;;;;;2.76;92.25;101629.25;5271835;28;20028;-78
2022/03/04 11:29:00;;;;;;;8.23;3.70;;;;;;;2.68;90.79;101619.69;5266446;28;20027;-78
2022/03/04 11:31:31;;;;;;;8.90;4.30;;;;;;;2.96;91.74;101619.13;5269093;28;20103;-78
2022/03/04 11:34:02;;;;;;;9.80;3.80;;;;;;;3.32;91.16;101616.97;5269134;28;20082;-77
2022/03/04 11:36:39;;;;;;;8.10;3.65;;;;;;;3.22;88.33;101615.16;5266855;28;20024;-77
2022/03/04 11:39:14;;;;;;;6.93;3.33;;;;;;;3.54;87.70;101613.75;5266781;28;20063;-77